createdAt,value
2022-12-20T00:02:42.798Z,7.65
2022-12-20T00:05:28.074Z,5.25
2022-12-20T00:08:13.747Z,5.80
2022-12-20T00:11:01.186Z,6.88
2022-12-20T00:13:47.211Z,6.85
2022-12-20T00:16:33.210Z,5.78
2022-12-20T00:19:18.638Z,5.68
2022-12-20T00:22:04.407Z,6.72
2022-12-20T00:24:50.263Z,5.40
2022-12-20T00:27:35.546Z,4.97
2022-12-20T00:30:21.355Z,7.45
2022-12-20T00:33:07.310Z,5.60
2022-12-20T00:35:54.335Z,5.13
2022-12-20T00:38:40.197Z,5.38
2022-12-20T00:41:28.086Z,6.97
2022-12-20T00:44:13.470Z,5.88
2022-12-20T00:46:59.330Z,5.40
2022-12-20T00:49:44.560Z,6.00
2022-12-20T00:52:30.049Z,4.65
2022-12-20T00:55:15.672Z,6.75
2022-12-20T00:58:00.768Z,5.28
2022-12-20T01:00:50.661Z,6.82
2022-12-20T01:03:41.941Z,6.18
2022-12-20T01:06:28.118Z,5.25
2022-12-20T01:09:13.572Z,6.05
2022-12-20T01:11:59.053Z,7.82
2022-12-20T01:14:44.452Z,5.75
2022-12-20T01:17:29.761Z,4.95
2022-12-20T01:20:15.280Z,4.45
2022-12-20T01:23:00.624Z,5.15
2022-12-20T01:25:46.392Z,5.55
2022-12-20T01:28:32.470Z,5.10
2022-12-20T01:31:19.681Z,5.25
2022-12-20T01:34:05.783Z,5.45
2022-12-20T01:36:51.435Z,5.07
2022-12-20T01:39:36.777Z,5.88
2022-12-20T01:42:22.903Z,6.28
2022-12-20T01:45:27.115Z,5.80
2022-12-20T01:48:16.552Z,5.93
2022-12-20T01:51:01.897Z,5.88
2022-12-20T01:53:51.940Z,7.97
2022-12-20T01:56:38.358Z,5.95
2022-12-20T01:59:25.784Z,6.30
2022-12-20T02:02:12.880Z,5.72
2022-12-20T02:04:58.633Z,5.10
2022-12-20T02:07:46.232Z,5.90
2022-12-20T02:10:56.017Z,6.13
2022-12-20T02:14:17.156Z,5.00
2022-12-20T02:17:24.290Z,6.38
2022-12-20T02:20:15.414Z,5.75
2022-12-20T02:23:28.923Z,6.60
2022-12-20T02:26:42.066Z,5.05
2022-12-20T02:29:35.257Z,6.47
2022-12-20T02:32:28.389Z,5.63
2022-12-20T02:35:18.032Z,4.47
2022-12-20T02:38:05.772Z,5.65
2022-12-20T02:40:56.130Z,6.10
2022-12-20T02:44:03.851Z,4.50
2022-12-20T02:46:50.841Z,4.95
2022-12-20T02:49:38.925Z,5.18
2022-12-20T02:52:30.976Z,4.75
2022-12-20T02:55:16.830Z,4.85
2022-12-20T02:58:09.282Z,6.47
2022-12-20T03:03:41.510Z,5.55
2022-12-20T03:06:27.303Z,9.35
2022-12-20T03:09:13.028Z,4.68
2022-12-20T03:11:59.637Z,4.47
2022-12-20T03:14:45.228Z,4.35
2022-12-20T03:17:32.544Z,5.63
2022-12-20T03:20:18.021Z,5.88
2022-12-20T03:23:03.539Z,4.72
2022-12-20T03:25:49.112Z,5.32
2022-12-20T03:28:43.820Z,5.93
2022-12-20T03:31:32.982Z,5.43
2022-12-20T03:34:18.356Z,5.60
2022-12-20T03:37:04.357Z,5.70
2022-12-20T03:39:50.124Z,5.95
2022-12-20T03:42:37.170Z,5.40
2022-12-20T03:45:23.023Z,5.70
2022-12-20T03:48:09.087Z,5.47
2022-12-20T03:50:54.469Z,5.80
2022-12-20T03:53:40.001Z,4.88
2022-12-20T03:56:26.576Z,4.68
2022-12-20T03:59:12.147Z,6.93
2022-12-20T04:01:58.759Z,4.40
2022-12-20T04:04:47.546Z,4.95
2022-12-20T04:07:33.419Z,4.95
2022-12-20T04:10:18.947Z,4.15
2022-12-20T04:13:04.447Z,4.68
2022-12-20T04:15:52.136Z,4.03
2022-12-20T04:18:42.808Z,4.85
2022-12-20T04:21:30.786Z,4.05
2022-12-20T04:24:17.221Z,4.85
2022-12-20T04:27:15.115Z,4.38
2022-12-20T04:30:00.965Z,7.88
2022-12-20T04:32:46.453Z,4.93
2022-12-20T04:35:32.780Z,4.70
2022-12-20T04:38:19.281Z,4.40
2022-12-20T04:41:06.117Z,3.72
2022-12-20T04:44:02.763Z,4.82
2022-12-20T04:46:54.928Z,4.47
2022-12-20T04:49:40.870Z,4.90
2022-12-20T04:52:47.831Z,5.05
2022-12-20T04:55:38.193Z,4.40
2022-12-20T04:58:23.904Z,6.53
2022-12-20T05:01:09.096Z,4.50
2022-12-20T05:04:02.807Z,4.68
2022-12-20T05:06:51.924Z,5.47
2022-12-20T05:09:37.757Z,5.20
2022-12-20T05:12:23.720Z,5.32
2022-12-20T05:15:09.744Z,5.25
2022-12-20T05:17:59.790Z,4.10
2022-12-20T05:21:12.521Z,5.28
2022-12-20T05:24:17.632Z,7.57
2022-12-20T05:27:25.535Z,6.20
2022-12-20T05:30:11.714Z,7.03
2022-12-20T05:32:57.754Z,5.95
2022-12-20T05:35:43.777Z,6.45
2022-12-20T05:38:32.391Z,5.72
2022-12-20T05:41:18.471Z,6.70
2022-12-20T05:44:07.897Z,5.72
2022-12-20T05:46:56.465Z,6.93
2022-12-20T05:49:47.026Z,6.55
2022-12-20T05:52:32.353Z,6.35
2022-12-20T05:55:17.915Z,7.72
2022-12-20T05:58:03.185Z,6.03
2022-12-20T06:01:06.430Z,7.30
2022-12-20T06:03:55.458Z,5.90
2022-12-20T06:06:40.944Z,7.30
2022-12-20T06:09:30.128Z,5.90
2022-12-20T06:12:21.901Z,5.78
2022-12-20T06:15:09.282Z,5.65
2022-12-20T06:17:57.605Z,5.60
2022-12-20T06:20:43.017Z,5.32
2022-12-20T06:23:32.238Z,6.43
2022-12-20T06:26:26.491Z,7.50
2022-12-20T06:29:14.261Z,5.22
2022-12-20T06:32:05.506Z,5.72
2022-12-20T06:34:51.324Z,5.25
2022-12-20T06:37:36.801Z,5.63
2022-12-20T06:40:22.608Z,5.28
2022-12-20T06:43:08.840Z,4.55
2022-12-20T06:45:54.475Z,5.15
2022-12-20T06:48:39.790Z,4.18
2022-12-20T06:51:27.321Z,6.05
2022-12-20T06:54:13.233Z,6.07
2022-12-20T06:56:58.871Z,4.60
2022-12-20T06:59:44.740Z,5.13
2022-12-20T07:02:30.695Z,5.63
2022-12-20T07:05:16.094Z,6.03
2022-12-20T07:08:04.219Z,5.70
2022-12-20T07:10:49.991Z,4.60
2022-12-20T07:13:35.248Z,5.40
2022-12-20T07:16:20.846Z,6.85
2022-12-20T07:19:06.145Z,5.05
2022-12-20T07:21:51.485Z,4.00
2022-12-20T07:24:36.781Z,5.07
2022-12-20T07:27:22.149Z,5.10
2022-12-20T07:30:08.122Z,6.82
2022-12-20T07:32:53.630Z,4.50
2022-12-20T07:35:40.289Z,4.78
2022-12-20T07:38:26.437Z,4.70
2022-12-20T07:41:14.160Z,5.05
2022-12-20T07:43:59.731Z,4.85
2022-12-20T07:46:45.011Z,4.13
2022-12-20T07:49:30.371Z,4.68
2022-12-20T07:52:17.066Z,6.43
2022-12-20T07:55:06.740Z,4.97
2022-12-20T07:57:57.817Z,4.43
2022-12-20T08:00:43.992Z,5.68
2022-12-20T08:03:33.253Z,4.75
2022-12-20T08:06:19.333Z,7.68
2022-12-20T08:09:06.266Z,4.95
2022-12-20T08:11:52.288Z,4.85
2022-12-20T08:14:38.094Z,6.65
2022-12-20T08:17:23.511Z,5.32
2022-12-20T08:20:09.812Z,4.22
2022-12-20T08:22:55.010Z,5.35
2022-12-20T08:25:42.005Z,4.80
2022-12-20T08:28:27.838Z,4.35
2022-12-20T08:31:13.747Z,4.22
2022-12-20T08:33:59.433Z,4.72
2022-12-20T08:36:45.150Z,4.43
2022-12-20T08:39:30.562Z,5.25
2022-12-20T08:42:16.085Z,5.38
2022-12-20T08:45:01.942Z,4.63
2022-12-20T08:47:47.835Z,5.22
2022-12-20T08:50:32.837Z,6.47
2022-12-20T08:53:18.133Z,5.70
2022-12-20T08:56:17.501Z,4.50
2022-12-20T08:59:02.685Z,4.95
2022-12-20T09:01:48.118Z,4.53
2022-12-20T09:04:33.791Z,4.63
2022-12-20T09:07:19.165Z,3.80
2022-12-20T09:10:05.110Z,4.13
2022-12-20T09:12:50.269Z,4.60
2022-12-20T09:15:37.060Z,5.40
2022-12-20T09:18:22.467Z,6.93
2022-12-20T09:21:08.649Z,4.85
2022-12-20T09:23:56.050Z,5.32
2022-12-20T09:26:41.259Z,4.38
2022-12-20T09:29:33.571Z,4.35
2022-12-20T09:32:20.608Z,5.20
2022-12-20T09:35:06.840Z,4.45
2022-12-20T09:37:52.029Z,5.53
2022-12-20T09:40:38.748Z,6.57
2022-12-20T09:43:24.619Z,4.75
2022-12-20T09:46:14.592Z,5.30
2022-12-20T09:48:59.944Z,5.15
2022-12-20T09:52:16.349Z,4.20
2022-12-20T09:55:23.418Z,4.40
2022-12-20T09:58:37.352Z,5.78
2022-12-20T10:01:25.563Z,4.50
2022-12-20T10:04:29.859Z,4.97
2022-12-20T10:07:15.686Z,5.47
2022-12-20T10:10:09.751Z,5.70
2022-12-20T10:13:11.623Z,5.60
2022-12-20T10:16:05.372Z,6.03
2022-12-20T10:19:14.859Z,5.72
2022-12-20T10:22:27.438Z,5.97
2022-12-20T10:25:16.548Z,5.47
2022-12-20T10:28:05.040Z,5.18
2022-12-20T10:30:50.692Z,6.30
2022-12-20T10:33:36.853Z,6.78
2022-12-20T10:36:25.750Z,5.43
2022-12-20T10:39:11.258Z,4.15
2022-12-20T10:41:57.244Z,5.97
2022-12-20T10:44:44.149Z,5.57
2022-12-20T10:47:40.492Z,6.43
2022-12-20T10:50:25.641Z,4.95
2022-12-20T10:53:11.119Z,3.65
2022-12-20T10:56:12.903Z,4.93
2022-12-20T10:59:01.417Z,5.97
2022-12-20T11:01:49.932Z,6.95
2022-12-20T11:04:38.537Z,6.57
2022-12-20T11:07:28.141Z,5.97
2022-12-20T11:10:28.888Z,5.15
2022-12-20T11:13:26.148Z,5.50
2022-12-20T11:16:39.443Z,6.50
2022-12-20T11:19:39.322Z,6.60
2022-12-20T11:22:51.073Z,5.28
2022-12-20T11:25:48.271Z,7.55
2022-12-20T11:29:12.735Z,7.80
2022-12-20T11:32:34.024Z,5.80
2022-12-20T11:36:00.572Z,6.35
2022-12-20T11:39:00.186Z,5.28
2022-12-20T11:42:00.572Z,5.95
2022-12-20T11:45:09.839Z,4.50
2022-12-20T11:48:07.309Z,4.63
2022-12-20T11:51:15.464Z,4.47
2022-12-20T11:54:26.493Z,3.92
2022-12-20T11:57:23.350Z,6.57
2022-12-20T12:00:15.075Z,5.55
2022-12-20T12:03:37.974Z,5.27
2022-12-20T12:06:34.105Z,4.70
2022-12-20T12:09:32.696Z,6.88
2022-12-20T12:12:28.462Z,6.10
2022-12-20T12:15:22.753Z,5.53
2022-12-20T12:18:19.675Z,5.97
2022-12-20T12:21:18.312Z,5.70
2022-12-20T12:24:29.168Z,5.93
2022-12-20T12:27:23.093Z,6.38
2022-12-20T12:30:13.735Z,6.20
2022-12-20T12:33:07.593Z,6.40
2022-12-20T12:36:02.594Z,4.57
2022-12-20T12:39:10.433Z,4.43
2022-12-20T12:42:19.310Z,5.68
2022-12-20T12:45:31.628Z,5.68
2022-12-20T12:48:17.869Z,4.80
2022-12-20T12:51:04.839Z,5.80
2022-12-20T12:53:54.389Z,5.30
2022-12-20T12:56:46.074Z,7.40
2022-12-20T12:59:35.270Z,5.55
2022-12-20T13:02:27.542Z,8.50
2022-12-20T13:05:12.916Z,6.43
2022-12-20T13:08:00.436Z,6.53
2022-12-20T13:10:45.799Z,5.75
2022-12-20T13:13:31.335Z,6.15
2022-12-20T13:17:02.260Z,5.82
2022-12-20T13:19:38.425Z,6.38
2022-12-20T13:22:25.746Z,6.35
2022-12-20T13:25:47.569Z,5.28
2022-12-20T13:28:32.796Z,4.95
2022-12-20T13:31:29.658Z,6.20
2022-12-20T13:34:36.771Z,5.25
2022-12-20T13:37:30.322Z,5.95
2022-12-20T13:40:32.700Z,5.65
2022-12-20T13:43:21.860Z,5.18
2022-12-20T13:46:10.424Z,6.35
2022-12-20T13:49:05.620Z,5.70
2022-12-20T13:52:22.831Z,4.68
2022-12-20T13:55:23.653Z,6.03
2022-12-20T13:58:22.474Z,5.75
2022-12-20T14:01:10.929Z,6.10
2022-12-20T14:03:57.003Z,6.65
2022-12-20T14:06:42.569Z,6.03
2022-12-20T14:09:36.736Z,4.97
2022-12-20T14:12:28.620Z,7.00
2022-12-20T14:15:32.173Z,7.00
2022-12-20T14:18:25.757Z,7.15
2022-12-20T14:21:12.118Z,5.53
2022-12-20T14:24:00.826Z,5.72
2022-12-20T14:26:51.474Z,6.68
2022-12-20T14:29:37.102Z,5.03
2022-12-20T14:32:22.869Z,5.15
2022-12-20T14:35:19.705Z,6.75
2022-12-20T14:38:05.422Z,5.72
2022-12-20T14:40:54.205Z,5.35
2022-12-20T14:43:39.774Z,5.05
2022-12-20T14:46:25.749Z,5.47
2022-12-20T14:49:19.281Z,5.15
2022-12-20T14:52:20.399Z,6.88
2022-12-20T14:55:09.810Z,5.72
2022-12-20T14:57:57.621Z,4.63
2022-12-20T15:01:17.952Z,6.68
2022-12-20T15:04:03.584Z,5.75
2022-12-20T15:06:49.402Z,6.65
2022-12-20T15:09:34.935Z,5.55
2022-12-20T15:12:20.556Z,6.45
2022-12-20T15:15:28.193Z,7.18
2022-12-20T15:18:19.416Z,7.03
2022-12-20T15:21:11.946Z,8.65
2022-12-20T15:26:45.403Z,8.25
2022-12-20T15:29:31.015Z,8.20
2022-12-20T15:32:24.230Z,8.75
2022-12-20T15:35:14.393Z,12.05
2022-12-20T15:38:00.362Z,9.75
2022-12-20T15:40:47.765Z,8.98
2022-12-20T15:43:39.188Z,9.93
2022-12-20T15:46:24.736Z,10.32
2022-12-20T15:49:22.004Z,10.02
2022-12-20T15:52:10.519Z,10.57
2022-12-20T15:54:55.947Z,13.50
2022-12-20T15:57:41.430Z,12.00
2022-12-20T16:00:26.922Z,11.63
2022-12-20T16:03:21.681Z,10.13
2022-12-20T16:06:11.173Z,9.65
2022-12-20T16:08:56.494Z,10.73
2022-12-20T16:11:43.307Z,11.18
2022-12-20T16:14:28.705Z,10.05
2022-12-20T16:17:15.035Z,10.35
2022-12-20T16:20:00.610Z,10.20
2022-12-20T16:22:46.194Z,9.00
2022-12-20T16:25:33.553Z,9.20
2022-12-20T16:28:19.011Z,10.15
2022-12-20T16:31:12.506Z,11.18
2022-12-20T16:34:00.510Z,10.75
2022-12-20T16:36:47.112Z,13.65
2022-12-20T16:39:33.201Z,11.80
2022-12-20T16:42:22.185Z,10.80
2022-12-20T16:45:16.048Z,11.10
2022-12-20T16:48:01.521Z,10.35
2022-12-20T16:50:46.949Z,12.88
2022-12-20T16:53:54.892Z,12.75
2022-12-20T16:56:38.385Z,12.85
2022-12-20T16:59:25.197Z,12.98
2022-12-20T17:02:28.279Z,12.77
2022-12-20T17:05:31.909Z,12.55
2022-12-20T17:11:23.806Z,12.07
2022-12-20T17:14:13.113Z,11.68
2022-12-20T17:16:59.822Z,12.13
2022-12-20T17:19:45.325Z,13.13
2022-12-20T17:22:31.270Z,12.93
2022-12-20T17:25:25.761Z,14.10
2022-12-20T17:28:11.841Z,12.02
2022-12-20T17:31:00.988Z,12.45
2022-12-20T17:33:49.697Z,13.90
2022-12-20T17:36:38.077Z,13.23
2022-12-20T17:39:25.154Z,16.52
2022-12-20T17:42:13.657Z,15.18
2022-12-20T17:44:59.820Z,14.85
2022-12-20T17:47:46.267Z,16.30
2022-12-20T17:50:32.175Z,18.35
2022-12-20T17:53:17.577Z,14.85
2022-12-20T17:56:03.353Z,15.13
2022-12-20T17:58:49.485Z,16.42
2022-12-20T18:01:36.057Z,16.45
2022-12-20T18:04:22.208Z,14.98
2022-12-20T18:07:09.077Z,15.60
2022-12-20T18:09:54.380Z,15.75
2022-12-20T18:12:40.480Z,16.70
2022-12-20T18:15:25.685Z,17.15
2022-12-20T18:18:11.736Z,15.82
2022-12-20T18:21:05.146Z,17.15
2022-12-20T18:23:51.036Z,17.73
2022-12-20T18:26:37.045Z,18.90
2022-12-20T18:29:22.570Z,21.48
2022-12-20T18:32:08.076Z,19.20
2022-12-20T18:34:53.648Z,22.30
2022-12-20T18:37:39.372Z,20.88
2022-12-20T18:40:26.379Z,19.55
2022-12-20T18:43:12.092Z,18.20
2022-12-20T18:46:06.539Z,18.50
2022-12-20T18:48:53.689Z,20.52
2022-12-20T18:51:39.625Z,19.50
2022-12-20T18:54:25.160Z,19.80
2022-12-20T18:57:10.805Z,19.50
2022-12-20T18:59:56.513Z,19.60
2022-12-20T19:02:43.011Z,21.23
2022-12-20T19:05:32.508Z,19.80
2022-12-20T19:08:19.117Z,19.67
2022-12-20T19:11:16.062Z,21.65
2022-12-20T19:14:01.356Z,22.63
2022-12-20T19:16:49.618Z,20.08
2022-12-20T19:19:35.355Z,21.27
2022-12-20T19:22:20.893Z,22.70
2022-12-20T19:25:06.748Z,20.08
2022-12-20T19:27:51.933Z,19.15
2022-12-20T19:30:37.583Z,20.08
2022-12-20T19:33:23.577Z,18.27
2022-12-20T19:36:37.333Z,15.10
2022-12-20T19:39:23.489Z,16.02
2022-12-20T19:42:25.523Z,15.93
2022-12-20T19:45:12.055Z,15.75
2022-12-20T19:47:57.261Z,14.80
2022-12-20T19:50:42.651Z,14.63
2022-12-20T19:53:28.691Z,14.90
2022-12-20T19:56:17.441Z,16.00
2022-12-20T19:59:03.055Z,14.32
2022-12-20T20:01:49.069Z,15.23
2022-12-20T20:04:34.628Z,15.90
2022-12-20T20:07:21.010Z,13.88
2022-12-20T20:10:07.204Z,16.70
2022-12-20T20:12:52.922Z,17.30
2022-12-20T20:15:38.607Z,13.32
2022-12-20T20:18:25.794Z,13.80
2022-12-20T20:21:15.288Z,13.90
2022-12-20T20:24:00.964Z,13.05
2022-12-20T20:26:46.969Z,13.52
2022-12-20T20:29:32.294Z,13.00
2022-12-20T20:32:18.290Z,11.75
2022-12-20T20:35:03.930Z,11.43
2022-12-20T20:37:49.260Z,15.30
2022-12-20T20:40:34.997Z,12.60
2022-12-20T20:43:20.947Z,13.50
2022-12-20T20:46:08.740Z,10.95
2022-12-20T20:48:54.555Z,10.63
2022-12-20T20:51:40.078Z,11.60
2022-12-20T20:54:25.793Z,10.63
2022-12-20T20:57:11.658Z,10.63
2022-12-20T20:59:57.561Z,12.05
2022-12-20T21:02:43.851Z,10.13
2022-12-20T21:08:35.159Z,13.45
2022-12-20T21:11:20.927Z,10.57
2022-12-20T21:14:06.231Z,10.18
2022-12-20T21:16:51.819Z,10.15
2022-12-20T21:19:37.205Z,9.63
2022-12-20T21:22:22.562Z,10.98
2022-12-20T21:25:08.965Z,9.52
2022-12-20T21:27:54.648Z,9.68
2022-12-20T21:30:40.386Z,8.77
2022-12-20T21:33:26.153Z,7.90
2022-12-20T21:36:14.271Z,6.38
2022-12-20T21:39:00.387Z,6.20
2022-12-20T21:41:46.708Z,7.65
2022-12-20T21:44:32.187Z,7.72
2022-12-20T21:47:18.419Z,9.13
2022-12-20T21:50:04.047Z,8.23
2022-12-20T21:52:49.533Z,7.43
2022-12-20T21:55:34.940Z,5.78
2022-12-20T21:58:20.603Z,6.43
2022-12-20T22:01:07.920Z,6.25
2022-12-20T22:03:55.027Z,6.68
2022-12-20T22:06:41.291Z,5.88
2022-12-20T22:09:26.836Z,6.00
2022-12-20T22:12:12.269Z,6.47
2022-12-20T22:14:58.429Z,6.47
2022-12-20T22:17:43.726Z,6.88
2022-12-20T22:20:29.668Z,7.45
2022-12-20T22:23:15.095Z,6.82
2022-12-20T22:26:05.788Z,5.75
2022-12-20T22:28:56.142Z,5.97
2022-12-20T22:31:41.476Z,6.35
2022-12-20T22:34:26.869Z,6.22
2022-12-20T22:37:12.343Z,4.70
2022-12-20T22:39:57.891Z,5.93
2022-12-20T22:42:43.569Z,6.50
2022-12-20T22:45:28.722Z,7.10
2022-12-20T22:48:14.171Z,6.90
2022-12-20T22:51:04.279Z,6.90
2022-12-20T22:53:49.591Z,6.95
2022-12-20T22:56:34.814Z,9.27
2022-12-20T22:59:20.473Z,7.57
2022-12-20T23:02:06.150Z,7.35
2022-12-20T23:04:52.403Z,6.53
2022-12-20T23:07:38.282Z,6.75
2022-12-20T23:10:49.416Z,9.10
2022-12-20T23:13:53.818Z,9.88
2022-12-20T23:16:39.874Z,8.75
2022-12-20T23:19:25.537Z,8.30
2022-12-20T23:22:29.561Z,8.60
2022-12-20T23:25:18.072Z,8.35
2022-12-20T23:28:03.870Z,8.35
2022-12-20T23:30:49.250Z,8.90
2022-12-20T23:33:35.680Z,8.45
2022-12-20T23:36:20.912Z,8.02
2022-12-20T23:39:06.692Z,8.98
2022-12-20T23:41:52.429Z,8.50
2022-12-20T23:44:37.664Z,9.80
2022-12-20T23:47:25.114Z,9.77
2022-12-20T23:50:10.751Z,9.88
2022-12-20T23:52:56.065Z,7.75
2022-12-20T23:55:41.650Z,9.85
2022-12-20T23:58:27.206Z,9.20
